sensor_id;sensor_type;location;lat;lon;timestamp;temperature;humidity
17202;DHT22;8717;53.588;10.176;2023-12-22T00:02:18;4.60;99.90
17202;DHT22;8717;53.588;10.176;2023-12-22T00:04:45;4.50;99.90
17202;DHT22;8717;53.588;10.176;2023-12-22T00:07:12;4.50;99.90
17202;DHT22;8717;53.588;10.176;2023-12-22T00:09:39;4.50;99.90
17202;DHT22;8717;53.588;10.176;2023-12-22T00:12:06;4.50;99.90
17202;DHT22;8717;53.588;10.176;2023-12-22T00:14:33;4.40;99.90
17202;DHT22;8717;53.588;10.176;2023-12-22T00:16:59;4.40;99.90
17202;DHT22;8717;53.588;10.176;2023-12-22T00:19:27;4.40;99.90
17202;DHT22;8717;53.588;10.176;2023-12-22T00:21:54;4.40;99.90
17202;DHT22;8717;53.588;10.176;2023-12-22T00:24:20;4.30;99.90
17202;DHT22;8717;53.588;10.176;2023-12-22T00:26:47;4.30;99.90
17202;DHT22;8717;53.588;10.176;2023-12-22T00:29:14;4.30;99.90
17202;DHT22;8717;53.588;10.176;2023-12-22T00:31:40;4.30;99.90
17202;DHT22;8717;53.588;10.176;2023-12-22T00:34:07;4.30;99.90
17202;DHT22;8717;53.588;10.176;2023-12-22T00:36:35;4.20;99.90
17202;DHT22;8717;53.588;10.176;2023-12-22T00:39:02;4.30;99.90
17202;DHT22;8717;53.588;10.176;2023-12-22T00:41:29;4.30;99.90
17202;DHT22;8717;53.588;10.176;2023-12-22T00:43:56;4.30;99.90
17202;DHT22;8717;53.588;10.176;2023-12-22T00:46:22;4.30;99.90
17202;DHT22;8717;53.588;10.176;2023-12-22T00:48:48;4.30;99.90
17202;DHT22;8717;53.588;10.176;2023-12-22T00:51:15;4.40;99.90
17202;DHT22;8717;53.588;10.176;2023-12-22T00:53:44;4.40;99.90
17202;DHT22;8717;53.588;10.176;2023-12-22T00:56:11;4.50;99.90
17202;DHT22;8717;53.588;10.176;2023-12-22T00:58:39;4.50;99.90
17202;DHT22;8717;53.588;10.176;2023-12-22T01:01:05;4.60;99.90
17202;DHT22;8717;53.588;10.176;2023-12-22T01:03:32;4.60;99.90
17202;DHT22;8717;53.588;10.176;2023-12-22T01:05:58;4.60;99.90
17202;DHT22;8717;53.588;10.176;2023-12-22T01:08:25;4.60;99.90
17202;DHT22;8717;53.588;10.176;2023-12-22T01:10:53;4.70;99.90
17202;DHT22;8717;53.588;10.176;2023-12-22T01:13:20;4.70;99.90
17202;DHT22;8717;53.588;10.176;2023-12-22T01:15:46;4.70;99.90
17202;DHT22;8717;53.588;10.176;2023-12-22T01:18:13;4.70;99.90
17202;DHT22;8717;53.588;10.176;2023-12-22T01:20:40;4.70;99.90
17202;DHT22;8717;53.588;10.176;2023-12-22T01:23:07;4.80;99.90
17202;DHT22;8717;53.588;10.176;2023-12-22T01:25:33;4.80;99.90
17202;DHT22;8717;53.588;10.176;2023-12-22T01:28:01;4.80;99.90
17202;DHT22;8717;53.588;10.176;2023-12-22T01:30:28;4.80;99.90
17202;DHT22;8717;53.588;10.176;2023-12-22T01:32:55;4.80;99.90
17202;DHT22;8717;53.588;10.176;2023-12-22T01:35:21;4.80;99.90
17202;DHT22;8717;53.588;10.176;2023-12-22T01:37:49;4.70;99.90
17202;DHT22;8717;53.588;10.176;2023-12-22T01:40:16;4.70;99.90
17202;DHT22;8717;53.588;10.176;2023-12-22T01:42:43;4.60;99.90
17202;DHT22;8717;53.588;10.176;2023-12-22T01:45:12;4.50;99.90
17202;DHT22;8717;53.588;10.176;2023-12-22T01:47:39;4.40;99.90
17202;DHT22;8717;53.588;10.176;2023-12-22T01:50:07;4.30;99.90
17202;DHT22;8717;53.588;10.176;2023-12-22T01:52:36;4.10;99.90
17202;DHT22;8717;53.588;10.176;2023-12-22T01:55:04;4.00;99.90
17202;DHT22;8717;53.588;10.176;2023-12-22T01:57:31;3.80;99.90
17202;DHT22;8717;53.588;10.176;2023-12-22T02:00:00;3.60;99.90
17202;DHT22;8717;53.588;10.176;2023-12-22T02:02:38;3.50;99.90
17202;DHT22;8717;53.588;10.176;2023-12-22T02:05:08;3.40;99.90
17202;DHT22;8717;53.588;10.176;2023-12-22T02:07:37;3.30;99.90
17202;DHT22;8717;53.588;10.176;2023-12-22T02:10:06;3.20;99.90
17202;DHT22;8717;53.588;10.176;2023-12-22T02:12:34;3.10;99.90
17202;DHT22;8717;53.588;10.176;2023-12-22T02:15:00;3.00;99.90
17202;DHT22;8717;53.588;10.176;2023-12-22T02:17:34;2.90;99.90
17202;DHT22;8717;53.588;10.176;2023-12-22T02:20:04;2.90;99.90
17202;DHT22;8717;53.588;10.176;2023-12-22T02:22:34;2.90;99.90
17202;DHT22;8717;53.588;10.176;2023-12-22T02:25:01;2.80;99.90
17202;DHT22;8717;53.588;10.176;2023-12-22T02:27:33;2.80;99.90
17202;DHT22;8717;53.588;10.176;2023-12-22T02:30:05;2.70;99.90
17202;DHT22;8717;53.588;10.176;2023-12-22T02:32:36;2.70;99.90
17202;DHT22;8717;53.588;10.176;2023-12-22T02:35:07;2.70;99.90
17202;DHT22;8717;53.588;10.176;2023-12-22T02:37:37;2.70;99.90
17202;DHT22;8717;53.588;10.176;2023-12-22T02:40:07;2.70;99.90
17202;DHT22;8717;53.588;10.176;2023-12-22T02:42:34;2.70;99.90
17202;DHT22;8717;53.588;10.176;2023-12-22T02:45:03;2.70;99.90
17202;DHT22;8717;53.588;10.176;2023-12-22T02:47:30;2.70;99.90
17202;DHT22;8717;53.588;10.176;2023-12-22T02:49:57;2.70;99.90
17202;DHT22;8717;53.588;10.176;2023-12-22T02:52:24;2.80;99.90
17202;DHT22;8717;53.588;10.176;2023-12-22T02:54:52;2.80;99.90
17202;DHT22;8717;53.588;10.176;2023-12-22T02:57:19;2.80;99.90
17202;DHT22;8717;53.588;10.176;2023-12-22T02:59:46;2.80;99.90
17202;DHT22;8717;53.588;10.176;2023-12-22T03:02:12;2.80;99.90
17202;DHT22;8717;53.588;10.176;2023-12-22T03:04:39;2.80;99.90
17202;DHT22;8717;53.588;10.176;2023-12-22T03:07:06;2.80;99.90
17202;DHT22;8717;53.588;10.176;2023-12-22T03:09:33;2.80;99.90
17202;DHT22;8717;53.588;10.176;2023-12-22T03:12:01;2.80;99.90
17202;DHT22;8717;53.588;10.176;2023-12-22T03:14:29;2.80;99.90
17202;DHT22;8717;53.588;10.176;2023-12-22T03:16:56;2.80;99.90
17202;DHT22;8717;53.588;10.176;2023-12-22T03:19:23;2.80;99.90
17202;DHT22;8717;53.588;10.176;2023-12-22T03:21:49;2.80;99.90
17202;DHT22;8717;53.588;10.176;2023-12-22T03:24:16;2.80;99.90
17202;DHT22;8717;53.588;10.176;2023-12-22T03:26:44;2.70;99.90
17202;DHT22;8717;53.588;10.176;2023-12-22T03:29:12;2.70;99.90
17202;DHT22;8717;53.588;10.176;2023-12-22T03:31:39;2.60;99.90
17202;DHT22;8717;53.588;10.176;2023-12-22T03:34:06;2.60;99.90
17202;DHT22;8717;53.588;10.176;2023-12-22T03:36:33;2.50;99.90
17202;DHT22;8717;53.588;10.176;2023-12-22T03:39:00;2.40;99.90
17202;DHT22;8717;53.588;10.176;2023-12-22T03:41:26;2.40;99.90
17202;DHT22;8717;53.588;10.176;2023-12-22T03:43:54;2.30;99.90
17202;DHT22;8717;53.588;10.176;2023-12-22T03:46:23;2.30;99.90
17202;DHT22;8717;53.588;10.176;2023-12-22T03:48:50;2.30;99.90
17202;DHT22;8717;53.588;10.176;2023-12-22T03:51:17;2.20;99.90
17202;DHT22;8717;53.588;10.176;2023-12-22T03:53:44;2.10;99.90
17202;DHT22;8717;53.588;10.176;2023-12-22T03:56:11;2.10;99.90
17202;DHT22;8717;53.588;10.176;2023-12-22T03:58:38;2.10;99.90
17202;DHT22;8717;53.588;10.176;2023-12-22T04:01:05;2.10;99.90
17202;DHT22;8717;53.588;10.176;2023-12-22T04:03:34;2.10;99.90
17202;DHT22;8717;53.588;10.176;2023-12-22T04:06:02;2.10;99.90
17202;DHT22;8717;53.588;10.176;2023-12-22T04:08:29;2.00;99.90
17202;DHT22;8717;53.588;10.176;2023-12-22T04:10:55;2.00;99.90
17202;DHT22;8717;53.588;10.176;2023-12-22T04:13:22;2.00;99.90
17202;DHT22;8717;53.588;10.176;2023-12-22T04:15:49;2.00;99.90
17202;DHT22;8717;53.588;10.176;2023-12-22T04:18:16;2.00;99.90
17202;DHT22;8717;53.588;10.176;2023-12-22T04:20:44;2.00;99.90
17202;DHT22;8717;53.588;10.176;2023-12-22T04:23:11;2.10;99.90
17202;DHT22;8717;53.588;10.176;2023-12-22T04:25:38;2.00;99.90
17202;DHT22;8717;53.588;10.176;2023-12-22T04:28:05;2.10;99.90
17202;DHT22;8717;53.588;10.176;2023-12-22T04:30:31;2.20;99.90
17202;DHT22;8717;53.588;10.176;2023-12-22T04:32:58;2.20;99.90
17202;DHT22;8717;53.588;10.176;2023-12-22T04:35:25;2.30;99.90
17202;DHT22;8717;53.588;10.176;2023-12-22T04:37:53;2.40;99.90
17202;DHT22;8717;53.588;10.176;2023-12-22T04:40:19;2.40;99.90
17202;DHT22;8717;53.588;10.176;2023-12-22T04:42:46;2.50;99.90
17202;DHT22;8717;53.588;10.176;2023-12-22T04:45:13;2.60;99.90
17202;DHT22;8717;53.588;10.176;2023-12-22T04:47:42;2.70;99.90
17202;DHT22;8717;53.588;10.176;2023-12-22T04:50:09;2.80;99.90
17202;DHT22;8717;53.588;10.176;2023-12-22T04:52:36;2.80;99.90
17202;DHT22;8717;53.588;10.176;2023-12-22T04:55:04;2.80;99.90
17202;DHT22;8717;53.588;10.176;2023-12-22T04:57:31;2.80;99.90
17202;DHT22;8717;53.588;10.176;2023-12-22T04:59:58;2.80;99.90
17202;DHT22;8717;53.588;10.176;2023-12-22T05:02:25;2.90;99.90
17202;DHT22;8717;53.588;10.176;2023-12-22T05:04:52;2.80;99.90
17202;DHT22;8717;53.588;10.176;2023-12-22T05:07:18;2.80;99.90
17202;DHT22;8717;53.588;10.176;2023-12-22T05:09:45;2.80;99.90
17202;DHT22;8717;53.588;10.176;2023-12-22T05:12:14;2.70;99.90
17202;DHT22;8717;53.588;10.176;2023-12-22T05:14:40;2.70;99.90
17202;DHT22;8717;53.588;10.176;2023-12-22T05:17:07;2.70;99.90
17202;DHT22;8717;53.588;10.176;2023-12-22T05:19:34;2.70;99.90
17202;DHT22;8717;53.588;10.176;2023-12-22T05:22:01;2.70;99.90
17202;DHT22;8717;53.588;10.176;2023-12-22T05:24:28;2.70;99.90
17202;DHT22;8717;53.588;10.176;2023-12-22T05:26:55;2.70;99.90
17202;DHT22;8717;53.588;10.176;2023-12-22T05:29:24;2.80;99.90
17202;DHT22;8717;53.588;10.176;2023-12-22T05:31:51;2.80;99.90
17202;DHT22;8717;53.588;10.176;2023-12-22T05:34:18;2.80;99.90
17202;DHT22;8717;53.588;10.176;2023-12-22T05:36:45;2.80;99.90
17202;DHT22;8717;53.588;10.176;2023-12-22T05:39:12;2.80;99.90
17202;DHT22;8717;53.588;10.176;2023-12-22T05:41:39;2.80;99.90
17202;DHT22;8717;53.588;10.176;2023-12-22T05:44:06;2.70;99.90
17202;DHT22;8717;53.588;10.176;2023-12-22T05:46:37;2.70;99.90
17202;DHT22;8717;53.588;10.176;2023-12-22T05:49:04;2.70;99.90
17202;DHT22;8717;53.588;10.176;2023-12-22T05:51:36;2.70;99.90
17202;DHT22;8717;53.588;10.176;2023-12-22T05:54:04;2.60;99.90
17202;DHT22;8717;53.588;10.176;2023-12-22T05:56:31;2.50;99.90
17202;DHT22;8717;53.588;10.176;2023-12-22T05:58:58;2.30;99.90
17202;DHT22;8717;53.588;10.176;2023-12-22T06:01:25;2.20;99.90
17202;DHT22;8717;53.588;10.176;2023-12-22T06:03:53;2.10;99.90
17202;DHT22;8717;53.588;10.176;2023-12-22T06:06:20;2.00;99.90
17202;DHT22;8717;53.588;10.176;2023-12-22T06:08:47;1.80;99.90
17202;DHT22;8717;53.588;10.176;2023-12-22T06:11:14;1.80;99.90
17202;DHT22;8717;53.588;10.176;2023-12-22T06:13:41;1.70;99.90
17202;DHT22;8717;53.588;10.176;2023-12-22T06:16:11;1.60;99.90
17202;DHT22;8717;53.588;10.176;2023-12-22T06:18:38;1.50;99.90
17202;DHT22;8717;53.588;10.176;2023-12-22T06:21:08;1.40;99.90
17202;DHT22;8717;53.588;10.176;2023-12-22T06:23:35;1.40;99.90
17202;DHT22;8717;53.588;10.176;2023-12-22T06:26:08;1.40;99.90
17202;DHT22;8717;53.588;10.176;2023-12-22T06:28:36;1.40;99.90
17202;DHT22;8717;53.588;10.176;2023-12-22T06:31:05;1.40;99.90
17202;DHT22;8717;53.588;10.176;2023-12-22T06:33:34;1.40;99.90
17202;DHT22;8717;53.588;10.176;2023-12-22T06:36:01;1.40;99.90
17202;DHT22;8717;53.588;10.176;2023-12-22T06:38:31;1.40;99.90
17202;DHT22;8717;53.588;10.176;2023-12-22T06:40:57;1.40;99.90
17202;DHT22;8717;53.588;10.176;2023-12-22T06:43:24;1.40;99.90
17202;DHT22;8717;53.588;10.176;2023-12-22T06:45:51;1.40;99.90
17202;DHT22;8717;53.588;10.176;2023-12-22T06:48:20;1.40;99.90
17202;DHT22;8717;53.588;10.176;2023-12-22T06:50:47;1.50;99.90
17202;DHT22;8717;53.588;10.176;2023-12-22T06:53:14;1.50;99.90
17202;DHT22;8717;53.588;10.176;2023-12-22T06:55:42;1.40;99.90
17202;DHT22;8717;53.588;10.176;2023-12-22T06:58:08;1.50;99.90
17202;DHT22;8717;53.588;10.176;2023-12-22T07:00:35;1.50;99.90
17202;DHT22;8717;53.588;10.176;2023-12-22T07:03:03;1.50;99.90
17202;DHT22;8717;53.588;10.176;2023-12-22T07:05:33;1.50;99.90
17202;DHT22;8717;53.588;10.176;2023-12-22T07:08:03;1.60;99.90
17202;DHT22;8717;53.588;10.176;2023-12-22T07:10:30;1.60;99.90
17202;DHT22;8717;53.588;10.176;2023-12-22T07:12:58;1.70;99.90
17202;DHT22;8717;53.588;10.176;2023-12-22T07:15:25;1.80;99.90
17202;DHT22;8717;53.588;10.176;2023-12-22T07:17:51;1.80;99.90
17202;DHT22;8717;53.588;10.176;2023-12-22T07:20:18;1.90;99.90
17202;DHT22;8717;53.588;10.176;2023-12-22T07:22:45;2.00;99.90
17202;DHT22;8717;53.588;10.176;2023-12-22T07:25:12;2.10;99.90
17202;DHT22;8717;53.588;10.176;2023-12-22T07:27:38;2.20;99.90
17202;DHT22;8717;53.588;10.176;2023-12-22T07:30:07;2.20;99.90
17202;DHT22;8717;53.588;10.176;2023-12-22T07:32:37;2.20;99.90
17202;DHT22;8717;53.588;10.176;2023-12-22T07:35:04;2.30;99.90
17202;DHT22;8717;53.588;10.176;2023-12-22T07:37:31;2.30;99.90
17202;DHT22;8717;53.588;10.176;2023-12-22T07:39:57;2.40;99.90
17202;DHT22;8717;53.588;10.176;2023-12-22T07:42:24;2.40;99.90
17202;DHT22;8717;53.588;10.176;2023-12-22T07:44:51;2.40;99.90
17202;DHT22;8717;53.588;10.176;2023-12-22T07:47:19;2.40;99.90
17202;DHT22;8717;53.588;10.176;2023-12-22T07:49:45;2.40;99.90
17202;DHT22;8717;53.588;10.176;2023-12-22T07:52:15;2.50;99.90
17202;DHT22;8717;53.588;10.176;2023-12-22T07:54:41;2.50;99.90
17202;DHT22;8717;53.588;10.176;2023-12-22T07:57:08;2.60;99.90
17202;DHT22;8717;53.588;10.176;2023-12-22T07:59:35;2.60;99.90
17202;DHT22;8717;53.588;10.176;2023-12-22T08:02:02;2.60;99.90
17202;DHT22;8717;53.588;10.176;2023-12-22T08:04:30;2.60;99.90
17202;DHT22;8717;53.588;10.176;2023-12-22T08:06:57;2.60;99.90
17202;DHT22;8717;53.588;10.176;2023-12-22T08:09:24;2.60;99.90
17202;DHT22;8717;53.588;10.176;2023-12-22T08:11:51;2.60;99.90
17202;DHT22;8717;53.588;10.176;2023-12-22T08:14:18;2.60;99.90
17202;DHT22;8717;53.588;10.176;2023-12-22T08:16:45;2.60;99.90
17202;DHT22;8717;53.588;10.176;2023-12-22T08:19:11;2.70;99.90
17202;DHT22;8717;53.588;10.176;2023-12-22T08:21:40;2.70;99.90
17202;DHT22;8717;53.588;10.176;2023-12-22T08:24:08;2.60;99.90
17202;DHT22;8717;53.588;10.176;2023-12-22T08:26:36;2.60;99.90
17202;DHT22;8717;53.588;10.176;2023-12-22T08:29:03;2.50;99.90
17202;DHT22;8717;53.588;10.176;2023-12-22T08:31:30;2.40;99.90
17202;DHT22;8717;53.588;10.176;2023-12-22T08:33:56;2.30;99.90
17202;DHT22;8717;53.588;10.176;2023-12-22T08:36:23;2.20;99.90
17202;DHT22;8717;53.588;10.176;2023-12-22T08:38:51;2.10;99.90
17202;DHT22;8717;53.588;10.176;2023-12-22T08:41:18;2.10;99.90
17202;DHT22;8717;53.588;10.176;2023-12-22T08:43:44;2.00;99.90
17202;DHT22;8717;53.588;10.176;2023-12-22T08:46:11;2.00;99.90
17202;DHT22;8717;53.588;10.176;2023-12-22T08:48:38;2.00;99.90
17202;DHT22;8717;53.588;10.176;2023-12-22T08:51:05;2.00;99.90
17202;DHT22;8717;53.588;10.176;2023-12-22T08:53:33;2.00;99.90
17202;DHT22;8717;53.588;10.176;2023-12-22T08:56:04;2.00;99.90
17202;DHT22;8717;53.588;10.176;2023-12-22T08:58:32;2.10;99.90
17202;DHT22;8717;53.588;10.176;2023-12-22T09:00:59;2.20;99.90
17202;DHT22;8717;53.588;10.176;2023-12-22T09:03:26;2.20;99.90
17202;DHT22;8717;53.588;10.176;2023-12-22T09:05:53;2.30;99.90
17202;DHT22;8717;53.588;10.176;2023-12-22T09:08:20;2.30;99.90
17202;DHT22;8717;53.588;10.176;2023-12-22T09:10:47;2.40;99.90
17202;DHT22;8717;53.588;10.176;2023-12-22T09:13:16;2.40;99.90
17202;DHT22;8717;53.588;10.176;2023-12-22T09:15:43;2.50;99.90
17202;DHT22;8717;53.588;10.176;2023-12-22T09:18:12;2.50;99.90
17202;DHT22;8717;53.588;10.176;2023-12-22T09:20:39;2.60;99.90
17202;DHT22;8717;53.588;10.176;2023-12-22T09:23:06;2.60;99.90
17202;DHT22;8717;53.588;10.176;2023-12-22T09:25:33;2.70;99.90
17202;DHT22;8717;53.588;10.176;2023-12-22T09:28:00;2.70;99.90
17202;DHT22;8717;53.588;10.176;2023-12-22T09:30:28;2.80;99.90
17202;DHT22;8717;53.588;10.176;2023-12-22T09:32:55;2.80;99.90
17202;DHT22;8717;53.588;10.176;2023-12-22T09:35:21;2.90;99.90
17202;DHT22;8717;53.588;10.176;2023-12-22T09:37:50;2.90;99.90
17202;DHT22;8717;53.588;10.176;2023-12-22T09:40:15;3.00;99.90
17202;DHT22;8717;53.588;10.176;2023-12-22T09:42:43;3.00;99.90
17202;DHT22;8717;53.588;10.176;2023-12-22T09:45:11;3.10;99.90
17202;DHT22;8717;53.588;10.176;2023-12-22T09:47:41;3.10;99.90
17202;DHT22;8717;53.588;10.176;2023-12-22T09:50:09;3.20;99.90
17202;DHT22;8717;53.588;10.176;2023-12-22T09:52:36;3.20;99.90
17202;DHT22;8717;53.588;10.176;2023-12-22T09:55:03;3.30;99.90
17202;DHT22;8717;53.588;10.176;2023-12-22T09:57:31;3.40;99.90
17202;DHT22;8717;53.588;10.176;2023-12-22T09:59:59;3.50;99.90
17202;DHT22;8717;53.588;10.176;2023-12-22T10:02:27;3.50;99.90
17202;DHT22;8717;53.588;10.176;2023-12-22T10:04:57;3.60;99.90
17202;DHT22;8717;53.588;10.176;2023-12-22T10:07:24;3.70;99.90
17202;DHT22;8717;53.588;10.176;2023-12-22T10:09:52;3.80;99.90
17202;DHT22;8717;53.588;10.176;2023-12-22T10:12:19;3.90;99.90
17202;DHT22;8717;53.588;10.176;2023-12-22T10:14:47;4.00;99.90
17202;DHT22;8717;53.588;10.176;2023-12-22T10:17:14;4.10;99.90
17202;DHT22;8717;53.588;10.176;2023-12-22T10:19:42;4.20;99.90
17202;DHT22;8717;53.588;10.176;2023-12-22T10:22:10;4.20;99.90
17202;DHT22;8717;53.588;10.176;2023-12-22T10:24:37;4.20;99.90
17202;DHT22;8717;53.588;10.176;2023-12-22T10:27:04;4.20;99.90
17202;DHT22;8717;53.588;10.176;2023-12-22T10:29:31;4.20;99.90
17202;DHT22;8717;53.588;10.176;2023-12-22T10:31:58;4.20;99.90
17202;DHT22;8717;53.588;10.176;2023-12-22T10:34:26;4.10;99.90
17202;DHT22;8717;53.588;10.176;2023-12-22T10:36:53;4.20;99.90
17202;DHT22;8717;53.588;10.176;2023-12-22T10:39:21;4.20;99.90
17202;DHT22;8717;53.588;10.176;2023-12-22T10:41:48;4.10;99.90
17202;DHT22;8717;53.588;10.176;2023-12-22T10:44:15;4.10;99.90
17202;DHT22;8717;53.588;10.176;2023-12-22T10:46:42;4.10;99.90
17202;DHT22;8717;53.588;10.176;2023-12-22T10:49:09;4.10;99.90
17202;DHT22;8717;53.588;10.176;2023-12-22T10:51:36;4.10;99.90
17202;DHT22;8717;53.588;10.176;2023-12-22T10:54:04;4.10;99.90
17202;DHT22;8717;53.588;10.176;2023-12-22T10:56:32;4.20;99.90
17202;DHT22;8717;53.588;10.176;2023-12-22T10:58:59;4.10;99.90
17202;DHT22;8717;53.588;10.176;2023-12-22T11:01:28;4.10;99.90
17202;DHT22;8717;53.588;10.176;2023-12-22T11:03:59;4.10;99.90
17202;DHT22;8717;53.588;10.176;2023-12-22T11:06:29;4.10;99.90
17202;DHT22;8717;53.588;10.176;2023-12-22T11:08:57;4.20;99.90
17202;DHT22;8717;53.588;10.176;2023-12-22T11:11:27;4.20;99.90
17202;DHT22;8717;53.588;10.176;2023-12-22T11:13:56;4.20;99.90
17202;DHT22;8717;53.588;10.176;2023-12-22T11:16:24;4.10;99.90
17202;DHT22;8717;53.588;10.176;2023-12-22T11:18:53;4.20;99.90
17202;DHT22;8717;53.588;10.176;2023-12-22T11:21:21;4.20;99.90
17202;DHT22;8717;53.588;10.176;2023-12-22T11:23:49;4.20;99.90
17202;DHT22;8717;53.588;10.176;2023-12-22T11:26:17;4.10;99.90
17202;DHT22;8717;53.588;10.176;2023-12-22T11:28:45;4.20;99.90
17202;DHT22;8717;53.588;10.176;2023-12-22T11:31:13;4.10;99.90
17202;DHT22;8717;53.588;10.176;2023-12-22T11:33:44;4.10;99.90
17202;DHT22;8717;53.588;10.176;2023-12-22T11:36:12;4.10;99.90
17202;DHT22;8717;53.588;10.176;2023-12-22T11:38:40;4.20;99.90
17202;DHT22;8717;53.588;10.176;2023-12-22T11:41:09;4.20;99.90
17202;DHT22;8717;53.588;10.176;2023-12-22T11:43:37;4.20;99.90
17202;DHT22;8717;53.588;10.176;2023-12-22T11:46:04;4.30;99.90
17202;DHT22;8717;53.588;10.176;2023-12-22T11:48:32;4.30;99.90
17202;DHT22;8717;53.588;10.176;2023-12-22T11:51:00;4.40;99.90
17202;DHT22;8717;53.588;10.176;2023-12-22T11:53:30;4.40;99.90
17202;DHT22;8717;53.588;10.176;2023-12-22T11:55:59;4.40;99.90
17202;DHT22;8717;53.588;10.176;2023-12-22T11:58:38;4.50;99.90
17202;DHT22;8717;53.588;10.176;2023-12-22T12:01:07;4.60;99.90
17202;DHT22;8717;53.588;10.176;2023-12-22T12:03:37;4.60;99.90
17202;DHT22;8717;53.588;10.176;2023-12-22T12:06:14;4.70;99.90
17202;DHT22;8717;53.588;10.176;2023-12-22T12:08:41;4.70;99.90
17202;DHT22;8717;53.588;10.176;2023-12-22T12:11:08;4.80;99.90
17202;DHT22;8717;53.588;10.176;2023-12-22T12:13:41;4.80;99.90
17202;DHT22;8717;53.588;10.176;2023-12-22T12:16:08;4.90;99.90
17202;DHT22;8717;53.588;10.176;2023-12-22T12:18:36;4.90;99.90
17202;DHT22;8717;53.588;10.176;2023-12-22T12:21:03;4.90;99.90
17202;DHT22;8717;53.588;10.176;2023-12-22T12:23:32;4.90;99.90
17202;DHT22;8717;53.588;10.176;2023-12-22T12:25:59;5.00;99.90
17202;DHT22;8717;53.588;10.176;2023-12-22T12:28:26;5.00;99.90
17202;DHT22;8717;53.588;10.176;2023-12-22T12:30:58;5.00;99.90
17202;DHT22;8717;53.588;10.176;2023-12-22T12:33:26;5.10;99.90
17202;DHT22;8717;53.588;10.176;2023-12-22T12:35:56;5.10;99.90
17202;DHT22;8717;53.588;10.176;2023-12-22T12:38:28;5.10;99.90
17202;DHT22;8717;53.588;10.176;2023-12-22T12:41:04;5.10;99.90
17202;DHT22;8717;53.588;10.176;2023-12-22T12:43:30;5.10;99.90
17202;DHT22;8717;53.588;10.176;2023-12-22T12:46:03;5.10;99.90
17202;DHT22;8717;53.588;10.176;2023-12-22T12:48:30;5.00;99.90
17202;DHT22;8717;53.588;10.176;2023-12-22T12:51:02;5.00;99.90
17202;DHT22;8717;53.588;10.176;2023-12-22T12:53:31;4.90;99.90
17202;DHT22;8717;53.588;10.176;2023-12-22T12:55:58;4.90;99.90
17202;DHT22;8717;53.588;10.176;2023-12-22T12:58:27;4.80;99.90
17202;DHT22;8717;53.588;10.176;2023-12-22T13:01:04;4.80;99.90
17202;DHT22;8717;53.588;10.176;2023-12-22T13:03:30;4.70;99.90
17202;DHT22;8717;53.588;10.176;2023-12-22T13:06:07;4.70;99.90
17202;DHT22;8717;53.588;10.176;2023-12-22T13:08:33;4.60;99.90
17202;DHT22;8717;53.588;10.176;2023-12-22T13:11:01;4.50;99.90
17202;DHT22;8717;53.588;10.176;2023-12-22T13:13:28;4.50;99.90
17202;DHT22;8717;53.588;10.176;2023-12-22T13:15:54;4.40;99.90
17202;DHT22;8717;53.588;10.176;2023-12-22T13:18:21;4.40;99.90
17202;DHT22;8717;53.588;10.176;2023-12-22T13:20:48;4.30;99.90
17202;DHT22;8717;53.588;10.176;2023-12-22T13:27:04;4.20;99.90
17202;DHT22;8717;53.588;10.176;2023-12-22T13:29:42;4.20;99.90
17202;DHT22;8717;53.588;10.176;2023-12-22T13:32:14;4.20;99.90
17202;DHT22;8717;53.588;10.176;2023-12-22T13:34:47;4.10;99.90
17202;DHT22;8717;53.588;10.176;2023-12-22T13:37:14;4.10;99.90
17202;DHT22;8717;53.588;10.176;2023-12-22T13:39:40;4.10;99.90
17202;DHT22;8717;53.588;10.176;2023-12-22T13:42:15;4.10;99.90
17202;DHT22;8717;53.588;10.176;2023-12-22T13:44:43;4.10;99.90
17202;DHT22;8717;53.588;10.176;2023-12-22T13:47:13;4.10;99.90
17202;DHT22;8717;53.588;10.176;2023-12-22T13:49:39;4.00;99.90
17202;DHT22;8717;53.588;10.176;2023-12-22T13:52:06;4.00;99.90
17202;DHT22;8717;53.588;10.176;2023-12-22T13:54:33;3.90;99.90
17202;DHT22;8717;53.588;10.176;2023-12-22T13:57:00;3.80;99.90
17202;DHT22;8717;53.588;10.176;2023-12-22T13:59:34;3.70;99.90
17202;DHT22;8717;53.588;10.176;2023-12-22T14:02:01;3.70;99.90
17202;DHT22;8717;53.588;10.176;2023-12-22T14:04:27;3.60;99.90
17202;DHT22;8717;53.588;10.176;2023-12-22T14:06:54;3.50;99.90
17202;DHT22;8717;53.588;10.176;2023-12-22T14:09:21;3.50;99.90
17202;DHT22;8717;53.588;10.176;2023-12-22T14:11:50;3.40;99.90
17202;DHT22;8717;53.588;10.176;2023-12-22T14:14:16;3.40;99.90
17202;DHT22;8717;53.588;10.176;2023-12-22T14:16:45;3.40;99.90
17202;DHT22;8717;53.588;10.176;2023-12-22T14:19:12;3.40;99.90
17202;DHT22;8717;53.588;10.176;2023-12-22T14:21:39;3.40;99.90
17202;DHT22;8717;53.588;10.176;2023-12-22T14:24:06;3.40;99.90
17202;DHT22;8717;53.588;10.176;2023-12-22T14:26:33;3.40;99.90
17202;DHT22;8717;53.588;10.176;2023-12-22T14:29:15;3.40;99.90
17202;DHT22;8717;53.588;10.176;2023-12-22T14:31:41;3.40;99.90
17202;DHT22;8717;53.588;10.176;2023-12-22T14:34:12;3.40;99.90
17202;DHT22;8717;53.588;10.176;2023-12-22T14:36:39;3.40;99.90
17202;DHT22;8717;53.588;10.176;2023-12-22T14:39:05;3.40;99.90
17202;DHT22;8717;53.588;10.176;2023-12-22T14:41:35;3.40;99.90
17202;DHT22;8717;53.588;10.176;2023-12-22T14:44:02;3.40;99.90
17202;DHT22;8717;53.588;10.176;2023-12-22T14:46:29;3.40;99.90
17202;DHT22;8717;53.588;10.176;2023-12-22T14:48:55;3.50;99.90
17202;DHT22;8717;53.588;10.176;2023-12-22T14:51:23;3.50;99.90
17202;DHT22;8717;53.588;10.176;2023-12-22T14:53:50;3.50;99.90
17202;DHT22;8717;53.588;10.176;2023-12-22T14:56:16;3.50;99.90
17202;DHT22;8717;53.588;10.176;2023-12-22T14:58:43;3.50;99.90
17202;DHT22;8717;53.588;10.176;2023-12-22T15:01:12;3.50;99.90
17202;DHT22;8717;53.588;10.176;2023-12-22T15:03:39;3.50;99.90
17202;DHT22;8717;53.588;10.176;2023-12-22T15:06:05;3.50;99.90
17202;DHT22;8717;53.588;10.176;2023-12-22T15:08:33;3.50;99.90
17202;DHT22;8717;53.588;10.176;2023-12-22T15:11:00;3.50;99.90
17202;DHT22;8717;53.588;10.176;2023-12-22T15:13:27;3.50;99.90
17202;DHT22;8717;53.588;10.176;2023-12-22T15:15:54;3.50;99.90
17202;DHT22;8717;53.588;10.176;2023-12-22T15:18:20;3.50;99.90
17202;DHT22;8717;53.588;10.176;2023-12-22T15:20:47;3.50;99.90
17202;DHT22;8717;53.588;10.176;2023-12-22T15:23:16;3.50;99.90
17202;DHT22;8717;53.588;10.176;2023-12-22T15:25:44;3.50;99.90
17202;DHT22;8717;53.588;10.176;2023-12-22T15:28:11;3.50;99.90
17202;DHT22;8717;53.588;10.176;2023-12-22T15:30:38;3.50;99.90
17202;DHT22;8717;53.588;10.176;2023-12-22T15:33:05;3.40;99.90
17202;DHT22;8717;53.588;10.176;2023-12-22T15:35:32;3.40;99.90
17202;DHT22;8717;53.588;10.176;2023-12-22T15:37:58;3.40;99.90
17202;DHT22;8717;53.588;10.176;2023-12-22T15:40:25;3.40;99.90
17202;DHT22;8717;53.588;10.176;2023-12-22T15:42:54;3.30;99.90
17202;DHT22;8717;53.588;10.176;2023-12-22T15:45:21;3.30;99.90
17202;DHT22;8717;53.588;10.176;2023-12-22T15:47:48;3.30;99.90
17202;DHT22;8717;53.588;10.176;2023-12-22T15:50:15;3.20;99.90
17202;DHT22;8717;53.588;10.176;2023-12-22T15:52:42;3.20;99.90